createdAt,value
2022-10-17T05:43:46.604Z,23.4
2022-10-17T05:49:52.175Z,23.4
2022-10-17T05:55:32.440Z,23.4
2022-10-17T06:01:36.128Z,23.4
2022-10-17T06:06:59.733Z,23.3
2022-10-17T06:12:36.115Z,29.3
2022-10-17T06:18:19.789Z,32.6
2022-10-17T06:23:58.131Z,31.4
2022-10-17T06:29:41.191Z,33.2
2022-10-17T06:35:22.074Z,37.3
2022-10-17T06:41:00.712Z,38.8
2022-10-17T06:46:37.170Z,39.8
2022-10-17T06:52:15.549Z,38.9
2022-10-17T06:57:53.504Z,39.7
2022-10-17T07:03:32.715Z,40.8
2022-10-17T07:09:14.306Z,41.9
2022-10-17T07:14:52.277Z,42.9
2022-10-17T07:20:29.574Z,43.9
2022-10-17T07:26:13.193Z,45
2022-10-17T07:31:51.050Z,46.1
2022-10-17T07:37:27.568Z,47.1
2022-10-17T07:42:50.589Z,48
2022-10-17T07:48:28.648Z,45.9
2022-10-17T07:54:06.434Z,43
2022-10-17T07:59:44.530Z,43.6
2022-10-17T08:05:27.571Z,44.7
2022-10-17T08:11:19.633Z,46.3
2022-10-17T08:16:57.626Z,47.9
2022-10-17T08:22:39.184Z,49.3
2022-10-17T08:28:05.672Z,50.5
2022-10-17T08:33:48.862Z,51.6
2022-10-17T08:39:01.962Z,52.6
2022-10-17T08:44:09.698Z,53.4
2022-10-17T08:49:35.942Z,54.3
2022-10-17T08:54:58.855Z,55.1
2022-10-17T09:00:44.921Z,55.9
2022-10-17T09:06:09.816Z,56.6
2022-10-17T09:11:17.041Z,57.4
2022-10-17T09:16:24.910Z,58
2022-10-17T09:21:47.211Z,58.6
2022-10-17T09:27:22.340Z,59.3
2022-10-17T09:33:18.685Z,59.8
2022-10-17T09:39:05.255Z,60.5
2022-10-17T09:44:38.266Z,61.1
2022-10-17T09:50:19.469Z,61.7
2022-10-17T16:03:16.335Z,38.2
2022-10-17T16:09:00.385Z,37.9
2022-10-17T16:14:39.505Z,37.6
2022-10-17T16:20:21.617Z,37.3
2022-10-17T16:25:45.985Z,37.1
2022-10-17T16:31:32.110Z,36.7
2022-10-17T16:36:45.050Z,36.4
2022-10-17T16:42:29.408Z,36.1
2022-10-17T16:48:09.557Z,35.8
2022-10-17T16:53:43.014Z,35.6
2022-10-17T16:59:24.234Z,35.4
2022-10-17T17:05:07.116Z,34.5
2022-10-17T17:10:32.036Z,33.1
2022-10-17T17:15:57.339Z,31.7
2022-10-17T17:21:22.936Z,30.5
2022-10-17T17:26:47.367Z,29.7
2022-10-17T17:31:57.077Z,28.9
2022-10-17T17:37:42.872Z,28.4
2022-10-17T17:43:08.281Z,27.9
2022-10-17T17:48:51.704Z,27.4
2022-10-17T17:54:40.732Z,26.9
2022-10-17T18:00:22.955Z,26.6
2022-10-17T18:05:38.247Z,26.3
2022-10-17T18:11:22.163Z,26
2022-10-17T18:17:03.574Z,25.8
2022-10-17T18:22:50.091Z,25.6
2022-10-17T18:28:31.988Z,25.4
2022-10-17T18:34:02.684Z,25.3
2022-10-17T18:39:34.274Z,25.1
2022-10-17T18:45:15.658Z,24.9
2022-10-17T18:51:05.858Z,24.8
2022-10-17T18:56:48.611Z,24.8
2022-10-17T19:02:37.948Z,24.6
2022-10-17T19:07:49.402Z,24.6
2022-10-17T19:13:36.016Z,24.5
2022-10-17T19:19:05.467Z,24.4
2022-10-17T19:24:34.367Z,24.4
2022-10-17T19:30:18.594Z,24.3
2022-10-17T19:35:51.294Z,24.2
2022-10-17T19:41:38.570Z,24.1
2022-10-17T19:47:22.013Z,24.1
2022-10-17T19:52:48.110Z,24.1
2022-10-17T19:58:33.746Z,24
2022-10-17T20:04:18.234Z,24
2022-10-17T20:10:22.536Z,23.9
